sensor_id;sensor_type;location;lat;lon;timestamp;P1;durP1;ratioP1;P2;durP2;ratioP2
51034;SDS011;37062;52.546;13.230;2024-03-08T00:00:45;27.87;;;16.33;;
51034;SDS011;37062;52.546;13.230;2024-03-08T00:03:13;27.23;;;15.13;;
51034;SDS011;37062;52.546;13.230;2024-03-08T00:05:42;29.27;;;15.40;;
51034;SDS011;37062;52.546;13.230;2024-03-08T00:08:10;27.40;;;15.23;;
51034;SDS011;37062;52.546;13.230;2024-03-08T00:10:38;28.60;;;16.03;;
51034;SDS011;37062;52.546;13.230;2024-03-08T00:13:07;27.27;;;15.90;;
51034;SDS011;37062;52.546;13.230;2024-03-08T00:15:36;25.60;;;15.60;;
51034;SDS011;37062;52.546;13.230;2024-03-08T00:18:05;25.07;;;15.43;;
51034;SDS011;37062;52.546;13.230;2024-03-08T00:20:33;26.37;;;15.27;;
51034;SDS011;37062;52.546;13.230;2024-03-08T00:23:02;24.87;;;15.03;;
51034;SDS011;37062;52.546;13.230;2024-03-08T00:25:30;27.50;;;15.77;;
51034;SDS011;37062;52.546;13.230;2024-03-08T00:27:58;27.33;;;16.03;;
51034;SDS011;37062;52.546;13.230;2024-03-08T00:30:26;26.27;;;15.37;;
51034;SDS011;37062;52.546;13.230;2024-03-08T00:32:57;26.50;;;15.37;;
51034;SDS011;37062;52.546;13.230;2024-03-08T00:35:26;27.20;;;15.80;;
51034;SDS011;37062;52.546;13.230;2024-03-08T00:37:54;28.00;;;16.27;;
51034;SDS011;37062;52.546;13.230;2024-03-08T00:40:25;28.87;;;16.83;;
51034;SDS011;37062;52.546;13.230;2024-03-08T00:42:53;27.47;;;16.40;;
51034;SDS011;37062;52.546;13.230;2024-03-08T00:45:22;28.00;;;16.00;;
51034;SDS011;37062;52.546;13.230;2024-03-08T00:47:50;29.87;;;16.90;;
51034;SDS011;37062;52.546;13.230;2024-03-08T00:50:20;28.50;;;16.47;;
51034;SDS011;37062;52.546;13.230;2024-03-08T00:52:48;37.77;;;16.93;;
51034;SDS011;37062;52.546;13.230;2024-03-08T00:55:17;33.13;;;17.33;;
51034;SDS011;37062;52.546;13.230;2024-03-08T00:57:45;27.23;;;16.67;;
51034;SDS011;37062;52.546;13.230;2024-03-08T01:00:14;28.37;;;15.70;;
51034;SDS011;37062;52.546;13.230;2024-03-08T01:02:43;28.73;;;16.40;;
51034;SDS011;37062;52.546;13.230;2024-03-08T01:05:11;27.43;;;16.73;;
51034;SDS011;37062;52.546;13.230;2024-03-08T01:07:41;30.03;;;16.80;;
51034;SDS011;37062;52.546;13.230;2024-03-08T01:10:12;31.47;;;16.77;;
51034;SDS011;37062;52.546;13.230;2024-03-08T01:12:41;27.93;;;16.50;;
51034;SDS011;37062;52.546;13.230;2024-03-08T01:15:10;29.97;;;17.93;;
51034;SDS011;37062;52.546;13.230;2024-03-08T01:17:38;30.63;;;17.70;;
51034;SDS011;37062;52.546;13.230;2024-03-08T01:20:07;30.50;;;17.00;;
51034;SDS011;37062;52.546;13.230;2024-03-08T01:22:38;33.10;;;17.67;;
51034;SDS011;37062;52.546;13.230;2024-03-08T01:25:08;30.70;;;17.17;;
51034;SDS011;37062;52.546;13.230;2024-03-08T01:27:36;27.73;;;15.63;;
51034;SDS011;37062;52.546;13.230;2024-03-08T01:30:05;28.90;;;16.60;;
51034;SDS011;37062;52.546;13.230;2024-03-08T01:32:36;29.97;;;15.67;;
51034;SDS011;37062;52.546;13.230;2024-03-08T01:35:05;30.30;;;16.80;;
51034;SDS011;37062;52.546;13.230;2024-03-08T01:37:36;31.27;;;16.07;;
51034;SDS011;37062;52.546;13.230;2024-03-08T01:40:04;28.67;;;16.37;;
51034;SDS011;37062;52.546;13.230;2024-03-08T01:42:36;30.80;;;17.00;;
51034;SDS011;37062;52.546;13.230;2024-03-08T01:45:05;26.17;;;15.73;;
51034;SDS011;37062;52.546;13.230;2024-03-08T01:47:34;26.87;;;16.03;;
51034;SDS011;37062;52.546;13.230;2024-03-08T01:50:03;29.70;;;17.03;;
51034;SDS011;37062;52.546;13.230;2024-03-08T01:52:33;28.50;;;15.80;;
51034;SDS011;37062;52.546;13.230;2024-03-08T01:55:03;26.80;;;15.97;;
51034;SDS011;37062;52.546;13.230;2024-03-08T01:57:35;29.43;;;15.90;;
51034;SDS011;37062;52.546;13.230;2024-03-08T02:00:05;27.60;;;16.33;;
51034;SDS011;37062;52.546;13.230;2024-03-08T02:02:37;33.40;;;16.33;;
51034;SDS011;37062;52.546;13.230;2024-03-08T02:05:07;28.17;;;16.30;;
51034;SDS011;37062;52.546;13.230;2024-03-08T02:07:35;27.13;;;15.67;;
51034;SDS011;37062;52.546;13.230;2024-03-08T02:10:04;30.93;;;16.63;;
51034;SDS011;37062;52.546;13.230;2024-03-08T02:12:33;34.83;;;16.60;;
51034;SDS011;37062;52.546;13.230;2024-03-08T02:15:04;27.93;;;16.20;;
51034;SDS011;37062;52.546;13.230;2024-03-08T02:17:34;27.27;;;16.30;;
51034;SDS011;37062;52.546;13.230;2024-03-08T02:20:02;30.50;;;15.83;;
51034;SDS011;37062;52.546;13.230;2024-03-08T02:22:33;27.50;;;15.87;;
51034;SDS011;37062;52.546;13.230;2024-03-08T02:25:01;30.43;;;16.50;;
51034;SDS011;37062;52.546;13.230;2024-03-08T02:27:32;25.30;;;15.20;;
51034;SDS011;37062;52.546;13.230;2024-03-08T02:30:00;29.43;;;16.23;;
51034;SDS011;37062;52.546;13.230;2024-03-08T02:32:28;30.10;;;17.00;;
51034;SDS011;37062;52.546;13.230;2024-03-08T02:34:59;30.97;;;16.93;;
51034;SDS011;37062;52.546;13.230;2024-03-08T02:37:27;27.80;;;15.43;;
51034;SDS011;37062;52.546;13.230;2024-03-08T02:39:57;30.23;;;17.40;;
51034;SDS011;37062;52.546;13.230;2024-03-08T02:42:26;29.57;;;17.30;;
51034;SDS011;37062;52.546;13.230;2024-03-08T02:44:54;31.37;;;17.97;;
51034;SDS011;37062;52.546;13.230;2024-03-08T02:47:22;30.03;;;16.30;;
51034;SDS011;37062;52.546;13.230;2024-03-08T02:49:53;28.20;;;15.97;;
51034;SDS011;37062;52.546;13.230;2024-03-08T02:52:22;29.60;;;16.10;;
51034;SDS011;37062;52.546;13.230;2024-03-08T02:54:51;25.90;;;15.70;;
51034;SDS011;37062;52.546;13.230;2024-03-08T02:57:21;27.17;;;16.47;;
51034;SDS011;37062;52.546;13.230;2024-03-08T02:59:49;29.20;;;16.57;;
51034;SDS011;37062;52.546;13.230;2024-03-08T03:02:18;31.27;;;18.17;;
51034;SDS011;37062;52.546;13.230;2024-03-08T03:04:46;30.77;;;17.80;;
51034;SDS011;37062;52.546;13.230;2024-03-08T03:07:15;31.77;;;18.33;;
51034;SDS011;37062;52.546;13.230;2024-03-08T03:09:43;31.37;;;17.77;;
51034;SDS011;37062;52.546;13.230;2024-03-08T03:12:11;32.70;;;17.93;;
51034;SDS011;37062;52.546;13.230;2024-03-08T03:14:42;31.27;;;16.40;;
51034;SDS011;37062;52.546;13.230;2024-03-08T03:17:10;30.40;;;17.63;;
51034;SDS011;37062;52.546;13.230;2024-03-08T03:19:40;30.37;;;17.30;;
51034;SDS011;37062;52.546;13.230;2024-03-08T03:22:08;31.67;;;17.20;;
51034;SDS011;37062;52.546;13.230;2024-03-08T03:24:37;32.13;;;17.67;;
51034;SDS011;37062;52.546;13.230;2024-03-08T03:27:06;28.70;;;16.90;;
51034;SDS011;37062;52.546;13.230;2024-03-08T03:29:37;33.53;;;18.43;;
51034;SDS011;37062;52.546;13.230;2024-03-08T03:32:07;32.10;;;17.33;;
51034;SDS011;37062;52.546;13.230;2024-03-08T03:34:36;30.13;;;17.27;;
51034;SDS011;37062;52.546;13.230;2024-03-08T03:37:04;32.60;;;17.23;;
51034;SDS011;37062;52.546;13.230;2024-03-08T03:39:33;28.47;;;15.57;;
51034;SDS011;37062;52.546;13.230;2024-03-08T03:42:07;30.30;;;16.63;;
51034;SDS011;37062;52.546;13.230;2024-03-08T03:44:35;31.10;;;16.63;;
51034;SDS011;37062;52.546;13.230;2024-03-08T03:47:03;32.07;;;17.80;;
51034;SDS011;37062;52.546;13.230;2024-03-08T03:49:34;30.17;;;17.47;;
51034;SDS011;37062;52.546;13.230;2024-03-08T03:52:03;30.43;;;16.93;;
51034;SDS011;37062;52.546;13.230;2024-03-08T03:54:31;32.53;;;18.13;;
51034;SDS011;37062;52.546;13.230;2024-03-08T03:57:00;30.37;;;16.97;;
51034;SDS011;37062;52.546;13.230;2024-03-08T03:59:29;29.20;;;16.50;;
51034;SDS011;37062;52.546;13.230;2024-03-08T04:01:57;30.90;;;17.23;;
51034;SDS011;37062;52.546;13.230;2024-03-08T04:04:26;35.57;;;17.07;;
51034;SDS011;37062;52.546;13.230;2024-03-08T04:06:55;28.47;;;15.97;;
51034;SDS011;37062;52.546;13.230;2024-03-08T04:09:24;31.70;;;17.40;;
51034;SDS011;37062;52.546;13.230;2024-03-08T04:11:52;32.60;;;18.43;;
51034;SDS011;37062;52.546;13.230;2024-03-08T04:14:22;33.80;;;17.57;;
51034;SDS011;37062;52.546;13.230;2024-03-08T04:16:51;34.40;;;18.30;;
51034;SDS011;37062;52.546;13.230;2024-03-08T04:19:19;32.97;;;17.37;;
51034;SDS011;37062;52.546;13.230;2024-03-08T04:21:47;33.37;;;17.90;;
51034;SDS011;37062;52.546;13.230;2024-03-08T04:24:17;32.90;;;17.60;;
51034;SDS011;37062;52.546;13.230;2024-03-08T04:26:45;34.33;;;17.93;;
51034;SDS011;37062;52.546;13.230;2024-03-08T04:29:14;34.90;;;18.63;;
51034;SDS011;37062;52.546;13.230;2024-03-08T04:31:43;36.07;;;18.70;;
51034;SDS011;37062;52.546;13.230;2024-03-08T04:34:12;32.93;;;17.43;;
51034;SDS011;37062;52.546;13.230;2024-03-08T04:36:41;32.00;;;16.97;;
51034;SDS011;37062;52.546;13.230;2024-03-08T04:39:09;29.57;;;17.60;;
51034;SDS011;37062;52.546;13.230;2024-03-08T04:41:40;33.13;;;17.93;;
51034;SDS011;37062;52.546;13.230;2024-03-08T04:44:09;35.37;;;17.30;;
51034;SDS011;37062;52.546;13.230;2024-03-08T04:46:39;34.97;;;17.77;;
51034;SDS011;37062;52.546;13.230;2024-03-08T04:49:07;33.63;;;18.33;;
51034;SDS011;37062;52.546;13.230;2024-03-08T04:51:38;32.27;;;17.23;;
51034;SDS011;37062;52.546;13.230;2024-03-08T04:54:06;31.20;;;17.13;;
51034;SDS011;37062;52.546;13.230;2024-03-08T04:56:35;33.43;;;18.00;;
51034;SDS011;37062;52.546;13.230;2024-03-08T04:59:04;37.17;;;17.70;;
51034;SDS011;37062;52.546;13.230;2024-03-08T05:01:34;39.83;;;19.47;;
51034;SDS011;37062;52.546;13.230;2024-03-08T05:04:04;34.23;;;18.03;;
51034;SDS011;37062;52.546;13.230;2024-03-08T05:06:35;29.27;;;16.87;;
51034;SDS011;37062;52.546;13.230;2024-03-08T05:09:04;31.80;;;17.30;;
51034;SDS011;37062;52.546;13.230;2024-03-08T05:11:40;36.13;;;18.80;;
51034;SDS011;37062;52.546;13.230;2024-03-08T05:14:10;35.90;;;18.40;;
51034;SDS011;37062;52.546;13.230;2024-03-08T05:16:42;30.60;;;17.20;;
51034;SDS011;37062;52.546;13.230;2024-03-08T05:19:15;36.70;;;18.23;;
51034;SDS011;37062;52.546;13.230;2024-03-08T05:21:44;32.20;;;18.53;;
51034;SDS011;37062;52.546;13.230;2024-03-08T05:24:12;33.60;;;18.40;;
51034;SDS011;37062;52.546;13.230;2024-03-08T05:26:41;35.10;;;19.80;;
51034;SDS011;37062;52.546;13.230;2024-03-08T05:29:10;31.13;;;18.50;;
51034;SDS011;37062;52.546;13.230;2024-03-08T05:31:45;35.27;;;18.20;;
51034;SDS011;37062;52.546;13.230;2024-03-08T05:34:15;37.40;;;18.03;;
51034;SDS011;37062;52.546;13.230;2024-03-08T05:36:46;31.70;;;17.87;;
51034;SDS011;37062;52.546;13.230;2024-03-08T05:39:16;33.83;;;18.50;;
51034;SDS011;37062;52.546;13.230;2024-03-08T05:41:45;37.17;;;18.10;;
51034;SDS011;37062;52.546;13.230;2024-03-08T05:44:15;36.47;;;18.87;;
51034;SDS011;37062;52.546;13.230;2024-03-08T05:46:44;33.90;;;18.57;;
51034;SDS011;37062;52.546;13.230;2024-03-08T05:49:13;35.40;;;18.80;;
51034;SDS011;37062;52.546;13.230;2024-03-08T05:51:42;35.47;;;18.90;;
51034;SDS011;37062;52.546;13.230;2024-03-08T05:54:11;37.30;;;19.07;;
51034;SDS011;37062;52.546;13.230;2024-03-08T05:56:43;35.40;;;18.97;;
51034;SDS011;37062;52.546;13.230;2024-03-08T05:59:12;33.87;;;19.03;;
51034;SDS011;37062;52.546;13.230;2024-03-08T06:01:41;36.07;;;18.83;;
51034;SDS011;37062;52.546;13.230;2024-03-08T06:04:10;35.87;;;19.20;;
51034;SDS011;37062;52.546;13.230;2024-03-08T06:06:39;34.20;;;19.00;;
51034;SDS011;37062;52.546;13.230;2024-03-08T06:09:08;34.50;;;18.67;;
51034;SDS011;37062;52.546;13.230;2024-03-08T06:11:39;33.00;;;17.40;;
51034;SDS011;37062;52.546;13.230;2024-03-08T06:14:09;36.63;;;19.40;;
51034;SDS011;37062;52.546;13.230;2024-03-08T06:16:37;34.97;;;18.87;;
51034;SDS011;37062;52.546;13.230;2024-03-08T06:19:07;37.73;;;20.67;;
51034;SDS011;37062;52.546;13.230;2024-03-08T06:21:35;36.63;;;19.17;;
51034;SDS011;37062;52.546;13.230;2024-03-08T06:24:03;31.37;;;17.77;;
51034;SDS011;37062;52.546;13.230;2024-03-08T06:26:32;32.47;;;18.03;;
51034;SDS011;37062;52.546;13.230;2024-03-08T06:29:03;32.30;;;19.10;;
51034;SDS011;37062;52.546;13.230;2024-03-08T06:31:33;38.10;;;19.63;;
51034;SDS011;37062;52.546;13.230;2024-03-08T06:34:07;34.17;;;18.57;;
51034;SDS011;37062;52.546;13.230;2024-03-08T06:36:36;31.70;;;18.97;;
51034;SDS011;37062;52.546;13.230;2024-03-08T06:39:05;33.80;;;19.13;;
51034;SDS011;37062;52.546;13.230;2024-03-08T06:41:36;30.77;;;17.87;;
51034;SDS011;37062;52.546;13.230;2024-03-08T06:44:05;32.80;;;18.63;;
51034;SDS011;37062;52.546;13.230;2024-03-08T06:46:35;29.63;;;18.27;;
51034;SDS011;37062;52.546;13.230;2024-03-08T06:49:04;28.87;;;17.97;;
51034;SDS011;37062;52.546;13.230;2024-03-08T06:51:35;31.05;;;18.58;;
51034;SDS011;37062;52.546;13.230;2024-03-08T06:54:03;29.05;;;17.65;;
51034;SDS011;37062;52.546;13.230;2024-03-08T06:56:35;27.27;;;17.35;;
51034;SDS011;37062;52.546;13.230;2024-03-08T06:59:04;32.42;;;18.98;;
51034;SDS011;37062;52.546;13.230;2024-03-08T07:01:33;29.45;;;18.38;;
51034;SDS011;37062;52.546;13.230;2024-03-08T07:04:03;33.35;;;19.48;;
51034;SDS011;37062;52.546;13.230;2024-03-08T07:06:32;28.92;;;18.92;;
51034;SDS011;37062;52.546;13.230;2024-03-08T07:09:02;26.27;;;17.67;;
51034;SDS011;37062;52.546;13.230;2024-03-08T07:11:30;30.60;;;19.90;;
51034;SDS011;37062;52.546;13.230;2024-03-08T07:13:59;28.63;;;18.25;;
51034;SDS011;37062;52.546;13.230;2024-03-08T07:16:29;32.33;;;19.38;;
51034;SDS011;37062;52.546;13.230;2024-03-08T07:18:57;31.50;;;19.30;;
51034;SDS011;37062;52.546;13.230;2024-03-08T07:21:26;32.15;;;19.73;;
51034;SDS011;37062;52.546;13.230;2024-03-08T07:23:55;29.73;;;18.67;;
51034;SDS011;37062;52.546;13.230;2024-03-08T07:26:41;32.03;;;19.15;;
51034;SDS011;37062;52.546;13.230;2024-03-08T07:29:09;30.15;;;20.40;;
51034;SDS011;37062;52.546;13.230;2024-03-08T07:31:37;31.38;;;19.75;;
51034;SDS011;37062;52.546;13.230;2024-03-08T07:34:16;31.80;;;20.95;;
51034;SDS011;37062;52.546;13.230;2024-03-08T07:36:45;29.73;;;19.85;;
51034;SDS011;37062;52.546;13.230;2024-03-08T07:39:13;33.58;;;20.73;;
51034;SDS011;37062;52.546;13.230;2024-03-08T07:41:43;28.92;;;18.40;;
51034;SDS011;37062;52.546;13.230;2024-03-08T07:44:12;28.00;;;18.98;;
51034;SDS011;37062;52.546;13.230;2024-03-08T07:46:40;28.63;;;18.35;;
51034;SDS011;37062;52.546;13.230;2024-03-08T07:49:08;30.98;;;20.02;;
51034;SDS011;37062;52.546;13.230;2024-03-08T07:51:38;29.85;;;20.25;;
51034;SDS011;37062;52.546;13.230;2024-03-08T07:54:06;26.80;;;18.63;;
51034;SDS011;37062;52.546;13.230;2024-03-08T07:56:35;26.90;;;18.40;;
51034;SDS011;37062;52.546;13.230;2024-03-08T07:59:05;30.35;;;18.77;;
51034;SDS011;37062;52.546;13.230;2024-03-08T08:01:34;25.45;;;17.67;;
51034;SDS011;37062;52.546;13.230;2024-03-08T08:04:02;27.35;;;19.92;;
51034;SDS011;37062;52.546;13.230;2024-03-08T08:06:31;26.70;;;17.75;;
51034;SDS011;37062;52.546;13.230;2024-03-08T08:08:59;27.20;;;18.63;;
51034;SDS011;37062;52.546;13.230;2024-03-08T08:11:28;28.98;;;18.90;;
51034;SDS011;37062;52.546;13.230;2024-03-08T08:13:57;27.73;;;18.70;;
51034;SDS011;37062;52.546;13.230;2024-03-08T08:16:29;28.40;;;18.70;;
51034;SDS011;37062;52.546;13.230;2024-03-08T08:18:57;26.55;;;17.80;;
51034;SDS011;37062;52.546;13.230;2024-03-08T08:21:25;27.15;;;17.60;;
51034;SDS011;37062;52.546;13.230;2024-03-08T08:23:53;25.40;;;18.08;;
51034;SDS011;37062;52.546;13.230;2024-03-08T08:26:24;30.95;;;19.13;;
51034;SDS011;37062;52.546;13.230;2024-03-08T08:28:53;30.00;;;19.42;;
51034;SDS011;37062;52.546;13.230;2024-03-08T08:31:21;33.88;;;20.95;;
51034;SDS011;37062;52.546;13.230;2024-03-08T08:33:51;29.80;;;19.45;;
51034;SDS011;37062;52.546;13.230;2024-03-08T08:36:24;35.17;;;20.30;;
51034;SDS011;37062;52.546;13.230;2024-03-08T08:38:53;35.95;;;22.27;;
51034;SDS011;37062;52.546;13.230;2024-03-08T08:41:22;36.75;;;23.00;;
51034;SDS011;37062;52.546;13.230;2024-03-08T08:43:51;35.85;;;23.80;;
51034;SDS011;37062;52.546;13.230;2024-03-08T08:46:34;36.88;;;22.52;;
51034;SDS011;37062;52.546;13.230;2024-03-08T08:49:08;39.20;;;24.27;;
51034;SDS011;37062;52.546;13.230;2024-03-08T08:51:37;32.67;;;20.00;;
51034;SDS011;37062;52.546;13.230;2024-03-08T08:54:05;29.90;;;19.13;;
51034;SDS011;37062;52.546;13.230;2024-03-08T08:56:38;24.38;;;15.82;;
51034;SDS011;37062;52.546;13.230;2024-03-08T08:59:07;22.65;;;15.45;;
51034;SDS011;37062;52.546;13.230;2024-03-08T09:01:35;24.73;;;14.63;;
51034;SDS011;37062;52.546;13.230;2024-03-08T09:04:04;24.65;;;14.73;;
51034;SDS011;37062;52.546;13.230;2024-03-08T09:06:35;23.20;;;14.27;;
51034;SDS011;37062;52.546;13.230;2024-03-08T09:09:03;23.80;;;14.98;;
51034;SDS011;37062;52.546;13.230;2024-03-08T09:11:32;24.13;;;14.18;;
51034;SDS011;37062;52.546;13.230;2024-03-08T09:14:01;29.08;;;15.88;;
51034;SDS011;37062;52.546;13.230;2024-03-08T09:16:29;23.40;;;15.88;;
51034;SDS011;37062;52.546;13.230;2024-03-08T09:19:00;25.27;;;15.57;;
51034;SDS011;37062;52.546;13.230;2024-03-08T09:21:28;25.77;;;16.67;;
51034;SDS011;37062;52.546;13.230;2024-03-08T09:23:59;26.40;;;16.48;;
51034;SDS011;37062;52.546;13.230;2024-03-08T09:26:27;28.30;;;16.60;;
51034;SDS011;37062;52.546;13.230;2024-03-08T09:28:55;25.75;;;15.98;;
51034;SDS011;37062;52.546;13.230;2024-03-08T09:31:24;27.88;;;15.65;;
51034;SDS011;37062;52.546;13.230;2024-03-08T09:33:52;27.00;;;16.10;;
51034;SDS011;37062;52.546;13.230;2024-03-08T09:36:20;26.70;;;16.63;;
51034;SDS011;37062;52.546;13.230;2024-03-08T09:38:49;27.73;;;17.80;;
51034;SDS011;37062;52.546;13.230;2024-03-08T09:41:19;27.73;;;16.52;;
51034;SDS011;37062;52.546;13.230;2024-03-08T09:43:47;25.52;;;16.70;;
51034;SDS011;37062;52.546;13.230;2024-03-08T09:46:16;25.38;;;17.52;;
51034;SDS011;37062;52.546;13.230;2024-03-08T09:48:46;30.45;;;17.33;;
51034;SDS011;37062;52.546;13.230;2024-03-08T09:51:14;27.70;;;15.93;;
51034;SDS011;37062;52.546;13.230;2024-03-08T09:53:43;25.08;;;14.90;;
51034;SDS011;37062;52.546;13.230;2024-03-08T09:56:12;28.30;;;16.23;;
51034;SDS011;37062;52.546;13.230;2024-03-08T09:58:43;26.42;;;15.73;;
51034;SDS011;37062;52.546;13.230;2024-03-08T10:01:41;28.88;;;17.23;;
51034;SDS011;37062;52.546;13.230;2024-03-08T10:04:11;24.60;;;16.38;;
51034;SDS011;37062;52.546;13.230;2024-03-08T10:06:40;26.35;;;15.82;;
51034;SDS011;37062;52.546;13.230;2024-03-08T10:09:08;27.30;;;15.85;;
51034;SDS011;37062;52.546;13.230;2024-03-08T10:11:37;26.42;;;15.63;;
51034;SDS011;37062;52.546;13.230;2024-03-08T10:14:10;23.33;;;15.02;;
51034;SDS011;37062;52.546;13.230;2024-03-08T10:16:39;26.77;;;16.60;;
51034;SDS011;37062;52.546;13.230;2024-03-08T10:19:07;26.60;;;15.15;;
51034;SDS011;37062;52.546;13.230;2024-03-08T10:21:46;26.35;;;15.75;;
51034;SDS011;37062;52.546;13.230;2024-03-08T10:24:15;26.20;;;15.32;;
51034;SDS011;37062;52.546;13.230;2024-03-08T10:26:44;28.50;;;17.08;;
51034;SDS011;37062;52.546;13.230;2024-03-08T10:29:15;24.10;;;14.93;;
51034;SDS011;37062;52.546;13.230;2024-03-08T10:31:49;25.20;;;14.98;;
51034;SDS011;37062;52.546;13.230;2024-03-08T10:34:18;23.42;;;14.10;;
51034;SDS011;37062;52.546;13.230;2024-03-08T10:36:46;25.95;;;16.00;;
51034;SDS011;37062;52.546;13.230;2024-03-08T10:39:21;26.60;;;15.65;;
51034;SDS011;37062;52.546;13.230;2024-03-08T10:41:52;26.65;;;14.57;;
51034;SDS011;37062;52.546;13.230;2024-03-08T10:44:30;26.02;;;14.77;;
51034;SDS011;37062;52.546;13.230;2024-03-08T10:47:10;23.88;;;14.60;;
51034;SDS011;37062;52.546;13.230;2024-03-08T10:49:54;19.75;;;14.02;;
51034;SDS011;37062;52.546;13.230;2024-03-08T10:52:30;22.52;;;13.75;;
51034;SDS011;37062;52.546;13.230;2024-03-08T10:55:01;25.58;;;14.00;;
51034;SDS011;37062;52.546;13.230;2024-03-08T10:57:29;23.33;;;14.40;;
51034;SDS011;37062;52.546;13.230;2024-03-08T11:00:00;24.52;;;14.20;;
51034;SDS011;37062;52.546;13.230;2024-03-08T11:02:30;23.50;;;14.38;;
51034;SDS011;37062;52.546;13.230;2024-03-08T11:04:59;23.88;;;14.25;;
51034;SDS011;37062;52.546;13.230;2024-03-08T11:07:33;22.65;;;13.20;;
51034;SDS011;37062;52.546;13.230;2024-03-08T11:10:02;21.58;;;13.85;;
51034;SDS011;37062;52.546;13.230;2024-03-08T11:12:36;20.48;;;13.45;;
51034;SDS011;37062;52.546;13.230;2024-03-08T11:15:11;22.63;;;13.52;;
51034;SDS011;37062;52.546;13.230;2024-03-08T11:17:42;29.95;;;14.00;;
51034;SDS011;37062;52.546;13.230;2024-03-08T11:20:15;21.20;;;12.15;;
51034;SDS011;37062;52.546;13.230;2024-03-08T11:22:48;25.15;;;13.60;;
51034;SDS011;37062;52.546;13.230;2024-03-08T11:25:32;21.08;;;13.40;;
51034;SDS011;37062;52.546;13.230;2024-03-08T11:33:52;18.70;;;11.73;;
51034;SDS011;37062;52.546;13.230;2024-03-08T11:36:21;20.52;;;12.55;;
51034;SDS011;37062;52.546;13.230;2024-03-08T11:38:51;20.85;;;11.73;;
51034;SDS011;37062;52.546;13.230;2024-03-08T11:41:22;22.58;;;12.68;;
51034;SDS011;37062;52.546;13.230;2024-03-08T11:44:01;21.42;;;12.68;;
51034;SDS011;37062;52.546;13.230;2024-03-08T11:46:34;19.17;;;11.23;;
51034;SDS011;37062;52.546;13.230;2024-03-08T11:49:02;19.88;;;11.75;;
51034;SDS011;37062;52.546;13.230;2024-03-08T11:51:30;22.05;;;11.85;;
51034;SDS011;37062;52.546;13.230;2024-03-08T11:53:59;19.38;;;12.00;;
51034;SDS011;37062;52.546;13.230;2024-03-08T11:56:27;16.75;;;11.60;;
51034;SDS011;37062;52.546;13.230;2024-03-08T11:58:58;19.10;;;11.35;;
51034;SDS011;37062;52.546;13.230;2024-03-08T12:01:28;18.80;;;11.48;;
51034;SDS011;37062;52.546;13.230;2024-03-08T12:03:59;18.85;;;12.52;;
51034;SDS011;37062;52.546;13.230;2024-03-08T12:06:29;19.48;;;12.30;;
51034;SDS011;37062;52.546;13.230;2024-03-08T12:09:07;18.17;;;11.65;;
51034;SDS011;37062;52.546;13.230;2024-03-08T12:11:37;19.02;;;12.27;;
51034;SDS011;37062;52.546;13.230;2024-03-08T12:14:06;23.42;;;12.77;;
51034;SDS011;37062;52.546;13.230;2024-03-08T12:16:36;18.92;;;12.48;;
51034;SDS011;37062;52.546;13.230;2024-03-08T12:19:06;19.55;;;11.70;;
51034;SDS011;37062;52.546;13.230;2024-03-08T12:21:35;18.88;;;12.80;;
51034;SDS011;37062;52.546;13.230;2024-03-08T12:24:04;18.83;;;12.57;;
51034;SDS011;37062;52.546;13.230;2024-03-08T12:26:36;20.25;;;12.00;;
51034;SDS011;37062;52.546;13.230;2024-03-08T12:29:16;18.98;;;12.10;;
51034;SDS011;37062;52.546;13.230;2024-03-08T12:31:50;19.17;;;11.82;;
51034;SDS011;37062;52.546;13.230;2024-03-08T12:34:22;20.35;;;12.07;;
51034;SDS011;37062;52.546;13.230;2024-03-08T12:36:50;20.92;;;12.50;;
51034;SDS011;37062;52.546;13.230;2024-03-08T12:39:22;17.98;;;11.60;;
51034;SDS011;37062;52.546;13.230;2024-03-08T12:41:53;20.58;;;12.32;;
51034;SDS011;37062;52.546;13.230;2024-03-08T12:44:23;20.58;;;12.93;;
51034;SDS011;37062;52.546;13.230;2024-03-08T12:46:52;20.95;;;12.02;;
51034;SDS011;37062;52.546;13.230;2024-03-08T12:49:22;20.75;;;12.27;;
51034;SDS011;37062;52.546;13.230;2024-03-08T12:51:52;21.50;;;13.15;;
51034;SDS011;37062;52.546;13.230;2024-03-08T12:54:20;20.77;;;12.68;;
51034;SDS011;37062;52.546;13.230;2024-03-08T12:56:53;20.17;;;13.43;;
51034;SDS011;37062;52.546;13.230;2024-03-08T12:59:22;21.80;;;12.10;;
51034;SDS011;37062;52.546;13.230;2024-03-08T13:01:51;18.85;;;11.65;;
51034;SDS011;37062;52.546;13.230;2024-03-08T13:04:20;21.95;;;12.95;;
51034;SDS011;37062;52.546;13.230;2024-03-08T13:06:52;21.30;;;13.57;;
51034;SDS011;37062;52.546;13.230;2024-03-08T13:09:21;22.13;;;13.27;;
51034;SDS011;37062;52.546;13.230;2024-03-08T13:11:50;22.27;;;12.75;;
51034;SDS011;37062;52.546;13.230;2024-03-08T13:14:20;23.98;;;13.05;;
51034;SDS011;37062;52.546;13.230;2024-03-08T13:16:49;20.48;;;11.95;;
51034;SDS011;37062;52.546;13.230;2024-03-08T13:19:18;23.02;;;13.43;;
51034;SDS011;37062;52.546;13.230;2024-03-08T13:21:49;22.17;;;12.70;;
51034;SDS011;37062;52.546;13.230;2024-03-08T13:24:18;21.45;;;12.77;;
51034;SDS011;37062;52.546;13.230;2024-03-08T13:26:47;22.90;;;12.85;;
51034;SDS011;37062;52.546;13.230;2024-03-08T13:29:16;21.73;;;13.00;;
51034;SDS011;37062;52.546;13.230;2024-03-08T13:31:45;20.45;;;12.25;;
51034;SDS011;37062;52.546;13.230;2024-03-08T13:34:18;20.92;;;12.80;;
51034;SDS011;37062;52.546;13.230;2024-03-08T13:36:56;21.98;;;12.85;;
51034;SDS011;37062;52.546;13.230;2024-03-08T13:39:27;16.85;;;11.65;;
51034;SDS011;37062;52.546;13.230;2024-03-08T13:41:57;18.13;;;11.40;;
51034;SDS011;37062;52.546;13.230;2024-03-08T13:44:26;19.70;;;12.20;;
51034;SDS011;37062;52.546;13.230;2024-03-08T13:46:54;19.88;;;12.75;;
51034;SDS011;37062;52.546;13.230;2024-03-08T13:49:24;20.25;;;12.43;;
51034;SDS011;37062;52.546;13.230;2024-03-08T13:51:53;24.55;;;12.85;;
51034;SDS011;37062;52.546;13.230;2024-03-08T13:54:23;19.80;;;12.25;;
51034;SDS011;37062;52.546;13.230;2024-03-08T13:56:51;22.42;;;13.13;;
51034;SDS011;37062;52.546;13.230;2024-03-08T13:59:20;20.85;;;12.45;;
51034;SDS011;37062;52.546;13.230;2024-03-08T14:01:49;19.23;;;12.18;;
51034;SDS011;37062;52.546;13.230;2024-03-08T14:04:18;20.60;;;11.73;;
51034;SDS011;37062;52.546;13.230;2024-03-08T14:06:46;16.90;;;11.45;;
51034;SDS011;37062;52.546;13.230;2024-03-08T14:09:15;17.92;;;10.98;;
51034;SDS011;37062;52.546;13.230;2024-03-08T14:11:45;19.05;;;11.32;;
51034;SDS011;37062;52.546;13.230;2024-03-08T14:14:14;20.63;;;12.18;;
51034;SDS011;37062;52.546;13.230;2024-03-08T14:16:42;20.60;;;12.45;;
51034;SDS011;37062;52.546;13.230;2024-03-08T14:19:10;20.85;;;12.75;;
51034;SDS011;37062;52.546;13.230;2024-03-08T14:21:40;20.10;;;11.40;;
51034;SDS011;37062;52.546;13.230;2024-03-08T14:24:10;16.48;;;10.82;;
51034;SDS011;37062;52.546;13.230;2024-03-08T14:26:38;19.45;;;11.77;;
51034;SDS011;37062;52.546;13.230;2024-03-08T14:29:09;18.85;;;11.73;;